Time;durP1;ratioP1;P1;durP2;ratioP2;P2;SDS_P1;SDS_P2;PMS_P1;PMS_P2;Temp;Humidity;BMP_temperature;BMP_pressure;BME280_temperature;BME280_humidity;BME280_pressure;Samples;Min_cycle;Max_cycle;Signal;HPM_P1;HPM_P2
2023/04/20 00:02:17;;;;;;;2.07;1.70;;;5.10;97.30;;;;;;5005793;28;20435;-89
2023/04/20 00:04:56;;;;;;;2.70;2.50;;;5.20;97.30;;;;;;5009969;28;20415;-89
2023/04/20 00:07:26;;;;;;;2.10;1.77;;;5.10;97.30;;;;;;5002540;28;20550;-89
2023/04/20 00:09:51;;;;;;;1.10;1.00;;;5.10;97.30;;;;;;4994679;28;20531;-88
2023/04/20 00:12:17;;;;;;;4.83;2.23;;;5.10;97.30;;;;;;4986338;28;20420;-89
2023/04/20 00:14:42;;;;;;;2.90;2.50;;;5.10;97.30;;;;;;4987230;28;20567;-88
2023/04/20 00:17:08;;;;;;;2.40;2.20;;;5.10;97.30;;;;;;5003629;28;20697;-88
2023/04/20 00:19:33;;;;;;;1.70;1.60;;;5.10;97.30;;;;;;5008280;28;20199;-88
2023/04/20 00:21:59;;;;;;;4.63;1.80;;;5.10;97.30;;;;;;5000643;28;20184;-88
2023/04/20 00:24:25;;;;;;;1.27;1.17;;;5.10;97.30;;;;;;5005329;28;20681;-89
2023/04/20 00:26:50;;;;;;;3.30;3.10;;;5.10;97.30;;;;;;4991850;28;20672;-88
2023/04/20 00:29:16;;;;;;;4.10;1.63;;;5.10;97.30;;;;;;4996418;28;20641;-88
2023/04/20 00:31:41;;;;;;;3.27;3.07;;;5.10;97.30;;;;;;5003502;28;20581;-90
2023/04/20 00:34:07;;;;;;;4.30;2.40;;;5.10;97.30;;;;;;5009829;28;20195;-88
2023/04/20 00:36:32;;;;;;;2.30;1.73;;;5.10;97.30;;;;;;4998024;28;20722;-88
2023/04/20 00:38:58;;;;;;;1.60;1.50;;;5.10;97.30;;;;;;5004863;28;20188;-89
2023/04/20 00:41:23;;;;;;;3.40;2.00;;;5.10;97.30;;;;;;4997525;28;20177;-89
2023/04/20 00:43:51;;;;;;;2.60;2.23;;;5.10;97.30;;;;;;5010476;28;20187;-88
2023/04/20 00:46:17;;;;;;;2.87;2.47;;;5.10;97.30;;;;;;5010401;28;20276;-89
2023/04/20 00:48:42;;;;;;;2.20;1.57;;;5.10;97.30;;;;;;4996813;28;20602;-89
2023/04/20 00:51:08;;;;;;;4.20;2.70;;;5.10;97.30;;;;;;4988210;28;20179;-88
2023/04/20 00:53:34;;;;;;;2.13;1.57;;;5.10;97.30;;;;;;4995334;28;20239;-88
2023/04/20 00:55:59;;;;;;;6.30;2.37;;;5.20;97.30;;;;;;5006681;28;20560;-88
2023/04/20 00:58:25;;;;;;;1.90;1.80;;;5.20;97.30;;;;;;5002636;28;20205;-89
2023/04/20 01:00:50;;;;;;;2.30;2.10;;;5.10;97.30;;;;;;5016181;28;20696;-88
2023/04/20 01:03:16;;;;;;;2.23;2.03;;;5.20;97.30;;;;;;5003524;28;20180;-87
2023/04/20 01:05:42;;;;;;;3.83;2.33;;;5.20;97.30;;;;;;4989672;28;20445;-88
2023/04/20 01:08:07;;;;;;;1.43;1.33;;;5.10;97.30;;;;;;4996752;28;20202;-88
2023/04/20 01:10:33;;;;;;;1.17;1.10;;;5.10;97.30;;;;;;5002403;28;20231;-88
2023/04/20 01:12:58;;;;;;;3.27;1.87;;;5.10;97.30;;;;;;5019530;28;20195;-88
2023/04/20 01:15:24;;;;;;;1.20;1.20;;;5.10;97.30;;;;;;5000369;28;20204;-87
2023/04/20 01:17:51;;;;;;;3.47;1.70;;;5.10;97.30;;;;;;5003571;28;20235;-90
2023/04/20 01:20:16;;;;;;;1.33;1.23;;;5.10;97.30;;;;;;4999766;28;20180;-88
2023/04/20 01:22:47;;;;;;;1.10;1.00;;;5.00;97.30;;;;;;5005178;28;20416;-90
2023/04/20 01:25:13;;;;;;;2.03;1.93;;;5.00;97.30;;;;;;5025342;28;20176;-91
2023/04/20 01:27:39;;;;;;;2.77;2.60;;;5.00;97.30;;;;;;5013057;28;20569;-88
2023/04/20 01:30:05;;;;;;;2.43;2.30;;;5.00;97.30;;;;;;4998301;28;20562;-90
2023/04/20 01:32:31;;;;;;;1.33;1.23;;;5.00;97.30;;;;;;5019251;28;20275;-89
2023/04/20 01:34:56;;;;;;;2.80;2.60;;;5.00;97.30;;;;;;4996548;28;20460;-88
2023/04/20 01:37:22;;;;;;;1.47;1.30;;;5.00;97.30;;;;;;5004445;28;20276;-88
2023/04/20 01:39:47;;;;;;;3.40;3.20;;;5.00;97.30;;;;;;5006335;28;20177;-88
2023/04/20 01:42:15;;;;;;;1.90;1.80;;;4.90;97.30;;;;;;5013655;28;20181;-87
2023/04/20 01:44:51;;;;;;;;;;;;;;;;;;;;;
2023/04/20 01:47:17;;;;;;;2.13;1.97;;;5.00;97.30;;;;;;5016561;28;20459;-88
2023/04/20 01:49:45;;;;;;;4.07;3.27;;;5.00;97.30;;;;;;4991582;28;20431;-88
2023/04/20 01:52:11;;;;;;;3.00;2.80;;;5.00;97.30;;;;;;5007443;28;20472;-88
2023/04/20 01:54:36;;;;;;;3.43;2.67;;;5.00;97.30;;;;;;5004014;28;20424;-88
2023/04/20 01:57:04;;;;;;;1.10;1.00;;;5.00;97.30;;;;;;5008536;28;20204;-88
2023/04/20 01:59:30;;;;;;;5.10;3.50;;;5.00;97.30;;;;;;4998023;28;20185;-88
2023/04/20 02:01:55;;;;;;;1.60;1.50;;;5.00;97.30;;;;;;5000089;28;20431;-87
2023/04/20 02:04:23;;;;;;;2.40;2.20;;;5.00;97.30;;;;;;4997353;28;20596;-88
2023/04/20 02:06:48;;;;;;;2.43;2.27;;;5.00;97.30;;;;;;4999131;28;20213;-88
2023/04/20 02:09:14;;;;;;;1.60;1.50;;;5.00;97.30;;;;;;4995094;28;21057;-87
2023/04/20 02:11:42;;;;;;;3.00;2.57;;;5.00;97.30;;;;;;5000629;28;20186;-87
2023/04/20 02:14:07;;;;;;;2.70;2.50;;;5.10;97.30;;;;;;5009027;28;20176;-88
2023/04/20 02:16:36;;;;;;;2.40;2.00;;;5.10;97.30;;;;;;4996011;28;20463;-88
2023/04/20 02:19:02;;;;;;;2.07;1.93;;;5.10;97.30;;;;;;5001254;28;20268;-88
2023/04/20 02:21:27;;;;;;;3.23;3.03;;;5.10;97.30;;;;;;4997812;28;20455;-87
2023/04/20 02:23:55;;;;;;;3.10;2.90;;;5.00;97.30;;;;;;5014646;28;20269;-87
2023/04/20 02:26:23;;;;;;;8.10;3.63;;;5.00;97.30;;;;;;5002296;28;20212;-87
2023/04/20 02:28:48;;;;;;;2.80;2.60;;;5.10;97.30;;;;;;5010731;28;20424;-87
2023/04/20 02:31:15;;;;;;;4.90;4.37;;;5.10;97.30;;;;;;4994728;28;20463;-88
2023/04/20 02:33:41;;;;;;;8.33;2.80;;;5.10;97.30;;;;;;4997171;28;20424;-87
2023/04/20 02:36:06;;;;;;;2.37;2.20;;;5.10;97.30;;;;;;4994041;28;20539;-88
2023/04/20 02:38:32;;;;;;;4.13;3.10;;;5.10;97.30;;;;;;5010808;28;20964;-88
2023/04/20 02:40:58;;;;;;;4.50;2.37;;;5.10;97.30;;;;;;5011120;28;20177;-88
2023/04/20 02:43:23;;;;;;;8.33;4.07;;;5.10;97.30;;;;;;5003186;28;20256;-88
2023/04/20 02:45:49;;;;;;;3.03;1.70;;;5.20;97.30;;;;;;4997840;28;20642;-88
2023/04/20 02:48:14;;;;;;;2.23;2.03;;;5.20;97.30;;;;;;4989213;28;20411;-90
2023/04/20 02:50:41;;;;;;;5.50;2.73;;;5.20;97.30;;;;;;4994286;28;20189;-88
2023/04/20 02:53:07;;;;;;;8.10;2.70;;;5.20;97.30;;;;;;4996398;28;20231;-88
2023/04/20 02:55:32;;;;;;;2.33;2.17;;;5.20;97.30;;;;;;5005803;28;20428;-89
2023/04/20 02:57:58;;;;;;;2.60;2.40;;;5.20;97.30;;;;;;4987728;28;20259;-88
2023/04/20 03:00:23;;;;;;;2.93;2.73;;;5.20;97.30;;;;;;5004713;28;20650;-88
2023/04/20 03:02:50;;;;;;;4.40;2.53;;;5.20;97.30;;;;;;4989139;28;20207;-88
2023/04/20 03:05:16;;;;;;;1.90;1.60;;;5.20;97.30;;;;;;5019237;28;20280;-88
2023/04/20 03:07:42;;;;;;;1.40;1.30;;;5.20;97.30;;;;;;5022380;28;20485;-88
2023/04/20 03:10:08;;;;;;;2.67;2.13;;;5.10;97.30;;;;;;4991522;28;20217;-90
2023/04/20 03:12:33;;;;;;;2.40;2.20;;;5.10;97.30;;;;;;5018802;28;20269;-89
2023/04/20 03:14:59;;;;;;;1.30;1.20;;;5.10;97.30;;;;;;4995754;28;20891;-88
2023/04/20 03:17:24;;;;;;;1.30;1.20;;;5.10;97.30;;;;;;4993965;28;20796;-89
2023/04/20 03:19:50;;;;;;;1.90;1.50;;;5.10;97.30;;;;;;4996266;28;20192;-90
2023/04/20 03:22:18;;;;;;;9.50;1.80;;;5.10;97.30;;;;;;4991197;28;20592;-89
2023/04/20 03:24:43;;;;;;;1.20;1.10;;;5.10;97.30;;;;;;4999672;28;20185;-88
2023/04/20 03:27:09;;;;;;;1.63;1.53;;;5.10;97.30;;;;;;4995905;28;20464;-89
2023/04/20 03:29:34;;;;;;;1.80;1.70;;;5.10;97.30;;;;;;4996535;28;20217;-88
2023/04/20 03:32:00;;;;;;;2.80;1.43;;;5.10;97.30;;;;;;4996093;28;20274;-89
2023/04/20 03:34:25;;;;;;;2.10;1.97;;;5.10;97.30;;;;;;5003192;28;20669;-87
2023/04/20 03:36:52;;;;;;;1.13;1.03;;;5.10;97.30;;;;;;4999077;28;20224;-89
2023/04/20 03:39:17;;;;;;;1.13;1.03;;;5.10;97.30;;;;;;5001560;28;20184;-89
2023/04/20 03:41:43;;;;;;;1.33;1.23;;;5.00;97.30;;;;;;4994000;28;20790;-89
2023/04/20 03:44:08;;;;;;;1.70;1.20;;;5.00;97.30;;;;;;4995507;28;20300;-88
2023/04/20 03:46:35;;;;;;;1.33;1.20;;;5.00;97.30;;;;;;5000134;28;20209;-89
2023/04/20 03:49:00;;;;;;;1.17;1.07;;;5.00;97.30;;;;;;5009457;28;20178;-89
2023/04/20 03:51:26;;;;;;;1.30;1.30;;;5.00;97.30;;;;;;4992322;28;20424;-89
2023/04/20 03:53:51;;;;;;;1.83;1.13;;;5.00;97.30;;;;;;5002071;28;20180;-89
2023/04/20 03:56:17;;;;;;;2.80;2.60;;;5.00;97.30;;;;;;4991379;28;20208;-88
2023/04/20 03:58:42;;;;;;;1.83;1.73;;;5.00;97.30;;;;;;4996101;28;20464;-89
2023/04/20 04:01:11;;;;;;;1.63;1.50;;;5.10;97.30;;;;;;5000961;28;20567;-89
2023/04/20 04:03:37;;;;;;;1.90;1.77;;;5.10;97.30;;;;;;5001340;28;20436;-89
2023/04/20 04:06:03;;;;;;;1.63;1.53;;;5.10;97.30;;;;;;5012905;28;20456;-89
2023/04/20 04:08:30;;;;;;;2.70;0.93;;;5.10;97.30;;;;;;4996965;28;20276;-89
2023/04/20 04:10:56;;;;;;;1.57;1.50;;;5.00;97.30;;;;;;4989147;28;20464;-89
2023/04/20 04:13:21;;;;;;;2.17;2.03;;;5.00;97.30;;;;;;4977086;28;20505;-89
2023/04/20 04:15:47;;;;;;;1.30;1.20;;;5.00;97.30;;;;;;4988162;28;20229;-89
2023/04/20 04:18:12;;;;;;;1.60;1.50;;;5.00;97.30;;;;;;4985116;28;20293;-88
2023/04/20 04:20:38;;;;;;;1.47;1.37;;;5.00;97.30;;;;;;5000608;28;20217;-89
2023/04/20 04:23:03;;;;;;;1.97;1.87;;;5.00;97.30;;;;;;4979196;28;20281;-91
2023/04/20 04:25:29;;;;;;;5.83;1.57;;;5.00;97.30;;;;;;4989417;28;20187;-89
2023/04/20 04:27:54;;;;;;;2.73;1.93;;;5.00;97.30;;;;;;4988941;28;20217;-89
2023/04/20 04:30:20;;;;;;;3.53;1.90;;;4.90;97.30;;;;;;4987756;28;20239;-90
2023/04/20 04:32:47;;;;;;;1.93;1.83;;;4.90;97.30;;;;;;4988954;28;20208;-90
2023/04/20 04:35:13;;;;;;;1.50;1.40;;;4.90;97.30;;;;;;4975111;28;20202;-89
2023/04/20 04:37:38;;;;;;;1.17;1.07;;;4.90;97.30;;;;;;4988516;28;20891;-89
2023/04/20 04:40:07;;;;;;;1.43;1.33;;;4.80;97.30;;;;;;4974986;28;20175;-89
2023/04/20 04:42:34;;;;;;;1.37;1.27;;;4.80;97.30;;;;;;4974460;28;20619;-89
2023/04/20 04:45:03;;;;;;;2.47;2.10;;;4.80;97.30;;;;;;4985806;28;20426;-89
2023/04/20 04:47:33;;;;;;;2.17;2.00;;;4.80;97.30;;;;;;4983145;28;20477;-89
2023/04/20 04:50:00;;;;;;;1.20;1.10;;;4.80;97.30;;;;;;4983484;28;20425;-89
2023/04/20 04:52:27;;;;;;;1.50;1.40;;;4.80;97.30;;;;;;4991849;28;20947;-89
2023/04/20 04:54:52;;;;;;;1.90;1.63;;;4.80;97.30;;;;;;4982773;28;20788;-89
2023/04/20 04:57:18;;;;;;;1.63;1.13;;;4.80;97.30;;;;;;4986124;28;20496;-90
2023/04/20 04:59:43;;;;;;;1.53;1.43;;;4.90;97.30;;;;;;4975933;28;20216;-89
2023/04/20 05:02:09;;;;;;;1.13;1.03;;;4.90;97.30;;;;;;4969889;28;20586;-89
2023/04/20 05:04:35;;;;;;;3.63;2.07;;;4.90;97.30;;;;;;4975322;28;20840;-90
2023/04/20 05:07:01;;;;;;;2.37;2.17;;;4.90;97.30;;;;;;4976769;28;20213;-90
2023/04/20 05:09:32;;;;;;;1.43;1.40;;;5.00;97.30;;;;;;4977853;28;20470;-90
2023/04/20 05:12:02;;;;;;;2.27;2.07;;;5.00;97.30;;;;;;5006441;28;20174;-89
2023/04/20 05:14:32;;;;;;;1.63;1.53;;;4.90;97.30;;;;;;4992307;28;20859;-89
2023/04/20 05:16:58;;;;;;;1.47;1.37;;;4.90;97.30;;;;;;5001697;28;20444;-89
2023/04/20 05:19:26;;;;;;;2.00;1.90;;;4.90;97.30;;;;;;4994080;28;20436;-90
2023/04/20 05:21:54;;;;;;;2.80;2.60;;;4.90;97.30;;;;;;4987443;28;20426;-90
2023/04/20 05:24:20;;;;;;;1.87;1.80;;;4.90;97.30;;;;;;5043593;23;20580;-83
2023/04/20 05:26:48;;;;;;;1.17;1.10;;;4.90;97.30;;;;;;4994432;28;20555;-86
2023/04/20 05:29:17;;;;;;;1.60;1.50;;;5.00;97.30;;;;;;4983110;28;20169;-85
2023/04/20 05:31:48;;;;;;;2.07;1.93;;;4.90;97.30;;;;;;4985319;28;20491;-86
2023/04/20 05:34:16;;;;;;;3.53;2.77;;;5.00;97.30;;;;;;4985910;28;20715;-86
2023/04/20 05:36:42;;;;;;;2.60;2.03;;;5.00;97.30;;;;;;5001783;28;20436;-86
2023/04/20 05:39:07;;;;;;;2.43;2.23;;;5.00;97.30;;;;;;4985499;28;20429;-86
2023/04/20 05:41:33;;;;;;;1.77;1.37;;;5.00;97.30;;;;;;4984955;28;20301;-86
2023/04/20 05:43:58;;;;;;;6.40;2.10;;;5.10;97.30;;;;;;5001302;28;20189;-85
2023/04/20 05:46:24;;;;;;;2.50;2.00;;;5.10;97.30;;;;;;4981225;28;20709;-86
2023/04/20 05:48:49;;;;;;;2.90;2.40;;;5.10;97.30;;;;;;5000530;28;20253;-86
2023/04/20 05:51:15;;;;;;;5.03;2.13;;;5.10;97.30;;;;;;4980298;28;20178;-86
2023/04/20 05:53:40;;;;;;;9.83;1.97;;;5.10;97.30;;;;;;4994959;28;20181;-86
2023/04/20 05:56:06;;;;;;;3.27;2.57;;;5.20;97.30;;;;;;4999648;28;20209;-86
2023/04/20 05:58:34;;;;;;;5.80;2.40;;;5.20;97.30;;;;;;4984560;28;20737;-86
2023/04/20 06:01:01;;;;;;;4.17;2.97;;;5.30;97.30;;;;;;5000368;28;21028;-86
2023/04/20 06:03:26;;;;;;;3.47;2.93;;;5.30;97.30;;;;;;4985450;28;20425;-88
2023/04/20 06:05:52;;;;;;;10.53;2.67;;;5.30;97.30;;;;;;4990071;28;20534;-86
2023/04/20 06:08:18;;;;;;;5.80;3.20;;;5.30;97.30;;;;;;4993157;28;20181;-86
2023/04/20 06:10:44;;;;;;;3.33;2.47;;;5.40;97.30;;;;;;4984800;28;20208;-86
2023/04/20 06:13:09;;;;;;;2.30;2.10;;;5.30;97.30;;;;;;4985013;28;20508;-86
2023/04/20 06:15:35;;;;;;;2.60;2.40;;;5.20;97.30;;;;;;4984802;28;20524;-85
2023/04/20 06:18:01;;;;;;;3.30;2.30;;;5.20;97.30;;;;;;5001644;28;20846;-85
2023/04/20 06:20:26;;;;;;;2.23;2.03;;;5.20;97.30;;;;;;4994121;28;20181;-86
2023/04/20 06:22:52;;;;;;;4.40;3.53;;;5.20;97.30;;;;;;4994325;28;20177;-86
2023/04/20 06:25:18;;;;;;;8.50;3.60;;;5.20;97.30;;;;;;5000922;28;20260;-86
2023/04/20 06:27:44;;;;;;;4.43;4.13;;;5.20;97.30;;;;;;4992878;28;20473;-86
2023/04/20 06:30:10;;;;;;;3.07;2.87;;;5.20;97.30;;;;;;5001069;28;20629;-86
2023/04/20 06:32:36;;;;;;;2.07;1.93;;;5.30;97.30;;;;;;5000819;28;20181;-87
2023/04/20 06:35:03;;;;;;;3.03;2.60;;;5.30;97.30;;;;;;4977290;28;20444;-87
2023/04/20 06:37:28;;;;;;;2.77;2.57;;;5.30;97.30;;;;;;4984896;28;20945;-86
2023/04/20 06:39:54;;;;;;;2.80;2.00;;;5.40;97.30;;;;;;4984755;28;20436;-87
2023/04/20 06:42:21;;;;;;;16.33;3.17;;;5.50;97.30;;;;;;4984353;28;20256;-86
2023/04/20 06:44:46;;;;;;;4.00;3.10;;;5.50;97.30;;;;;;4983670;28;20209;-86
2023/04/20 06:47:12;;;;;;;5.60;2.93;;;5.60;97.30;;;;;;4984201;28;20906;-86
2023/04/20 06:49:38;;;;;;;1.60;1.50;;;5.60;97.30;;;;;;4984208;28;20190;-86
2023/04/20 06:52:04;;;;;;;3.10;2.43;;;5.60;97.30;;;;;;4976740;28;20745;-86
2023/04/20 06:54:30;;;;;;;3.90;2.53;;;5.60;97.30;;;;;;4996164;28;20532;-86
2023/04/20 06:56:56;;;;;;;1.73;1.63;;;5.60;97.30;;;;;;4984139;28;20520;-86
2023/04/20 06:59:21;;;;;;;3.70;2.90;;;5.60;97.30;;;;;;4993572;28;20460;-86
2023/04/20 07:01:47;;;;;;;3.30;3.07;;;5.50;97.30;;;;;;4984611;28;20186;-86
2023/04/20 07:04:14;;;;;;;2.90;2.70;;;5.50;97.30;;;;;;4984132;28;20193;-86
2023/04/20 07:06:40;;;;;;;3.73;2.53;;;5.50;97.30;;;;;;4993194;28;20276;-87
2023/04/20 07:09:07;;;;;;;2.50;2.30;;;5.40;97.30;;;;;;5001183;28;20911;-86
2023/04/20 07:11:32;;;;;;;2.60;2.40;;;5.40;97.30;;;;;;5000351;28;20185;-86
2023/04/20 07:13:58;;;;;;;7.83;2.20;;;5.30;97.30;;;;;;4976466;28;20808;-89
2023/04/20 07:16:23;;;;;;;3.73;3.53;;;5.40;97.30;;;;;;4984533;28;20194;-86
2023/04/20 07:18:49;;;;;;;3.30;3.10;;;5.40;97.30;;;;;;4984344;28;20185;-85
2023/04/20 07:21:15;;;;;;;8.10;4.13;;;5.50;97.30;;;;;;5000741;28;20182;-87
2023/04/20 07:23:40;;;;;;;6.40;2.10;;;5.60;97.30;;;;;;4994829;28;20647;-86
2023/04/20 07:26:06;;;;;;;4.83;3.03;;;5.70;97.30;;;;;;4992409;28;20280;-85
2023/04/20 07:28:32;;;;;;;5.33;3.30;;;5.80;97.30;;;;;;4976708;28;20531;-86
2023/04/20 07:30:58;;;;;;;4.13;2.87;;;6.00;97.30;;;;;;4992479;28;20166;-86
2023/04/20 07:33:24;;;;;;;6.23;4.70;;;6.00;97.30;;;;;;4983344;28;20417;-86
2023/04/20 07:35:49;;;;;;;2.00;1.90;;;6.10;97.30;;;;;;4975555;28;20822;-88
2023/04/20 07:38:15;;;;;;;3.90;3.63;;;6.10;97.30;;;;;;4999873;28;20254;-86
2023/04/20 07:40:40;;;;;;;2.37;2.17;;;6.20;97.30;;;;;;4999915;28;20182;-86
2023/04/20 07:43:06;;;;;;;10.20;3.43;;;6.30;97.30;;;;;;4983644;28;20178;-85
2023/04/20 07:45:31;;;;;;;3.73;3.53;;;6.30;97.30;;;;;;4992397;28;20198;-87
2023/04/20 07:48:00;;;;;;;9.13;3.10;;;6.20;97.30;;;;;;4999536;28;20205;-86
2023/04/20 07:50:25;;;;;;;2.13;1.67;;;6.30;97.30;;;;;;4982901;28;20729;-86
2023/04/20 07:52:51;;;;;;;4.63;4.33;;;6.30;97.30;;;;;;4983016;28;20565;-86
2023/04/20 07:55:17;;;;;;;4.20;3.07;;;6.50;97.30;;;;;;4999547;28;20205;-86
2023/04/20 07:57:43;;;;;;;6.80;2.93;;;6.70;97.30;;;;;;4992745;28;20182;-88
2023/04/20 08:00:09;;;;;;;5.20;3.10;;;6.80;97.30;;;;;;4999545;28;20190;-86
2023/04/20 08:02:34;;;;;;;2.80;2.60;;;6.90;97.30;;;;;;4994369;28;20520;-86
2023/04/20 08:05:03;;;;;;;5.37;2.50;;;7.00;97.30;;;;;;4974320;28;20617;-84
2023/04/20 08:07:32;;;;;;;4.30;2.50;;;7.10;97.30;;;;;;4974995;28;20213;-86
2023/04/20 08:09:59;;;;;;;3.13;2.20;;;7.10;97.30;;;;;;4982595;28;20429;-86
2023/04/20 08:12:24;;;;;;;4.80;2.73;;;7.10;97.30;;;;;;4999025;28;20421;-87
2023/04/20 08:14:50;;;;;;;2.40;2.10;;;7.10;97.30;;;;;;4998844;28;20433;-86
2023/04/20 08:17:15;;;;;;;4.90;2.77;;;7.20;97.30;;;;;;4976538;28;20236;-87
2023/04/20 08:19:41;;;;;;;5.40;3.07;;;7.30;97.30;;;;;;4993486;28;20181;-87
2023/04/20 08:22:06;;;;;;;6.20;3.47;;;7.50;97.30;;;;;;4975488;28;20209;-86
2023/04/20 08:24:32;;;;;;;5.80;3.63;;;7.60;97.30;;;;;;4990192;28;20268;-86
2023/04/20 08:26:58;;;;;;;3.40;2.90;;;7.90;97.30;;;;;;4998642;28;20205;-86
2023/04/20 08:29:24;;;;;;;4.80;4.10;;;8.10;97.30;;;;;;4982725;28;20178;-86
2023/04/20 08:31:50;;;;;;;5.40;5.10;;;8.20;97.30;;;;;;4974301;28;20658;-86
2023/04/20 08:34:15;;;;;;;3.10;2.70;;;8.10;97.30;;;;;;4996760;28;20516;-86
2023/04/20 08:36:42;;;;;;;5.10;3.50;;;8.10;97.30;;;;;;4981129;28;20181;-86
2023/04/20 08:39:10;;;;;;;12.47;4.20;;;8.20;97.30;;;;;;4982317;28;20659;-86
2023/04/20 08:41:36;;;;;;;3.23;2.80;;;8.40;97.30;;;;;;4979392;28;20797;-87
2023/04/20 08:44:01;;;;;;;3.83;3.63;;;8.50;97.30;;;;;;4998599;28;20436;-87
2023/04/20 08:46:28;;;;;;;4.83;4.43;;;8.60;97.30;;;;;;4991398;28;20197;-87
2023/04/20 08:48:54;;;;;;;4.97;3.63;;;8.70;97.30;;;;;;4983444;28;20189;-87
2023/04/20 08:51:21;;;;;;;7.17;5.67;;;8.60;97.30;;;;;;5005529;28;20472;-92
2023/04/20 08:53:46;;;;;;;4.50;3.57;;;8.50;97.30;;;;;;5004803;28;20433;-91
2023/04/20 08:56:12;;;;;;;6.77;3.10;;;8.50;97.30;;;;;;5000805;28;20560;-92
2023/04/20 08:58:41;;;;;;;3.93;3.10;;;8.50;97.30;;;;;;5008648;28;20299;-89
2023/04/20 09:01:07;;;;;;;3.80;3.60;;;8.50;97.30;;;;;;4981849;28;20296;-87
2023/04/20 09:03:38;;;;;;;3.70;2.10;;;8.60;97.30;;;;;;4970636;28;21021;-87
2023/04/20 09:06:05;;;;;;;2.83;2.67;;;8.80;97.30;;;;;;4982507;28;20473;-86
2023/04/20 09:08:41;;;;;;;5.40;3.10;;;9.00;97.30;;;;;;4998437;28;20922;-87
2023/04/20 09:11:26;;;;;;;2.70;2.40;;;8.90;97.30;;;;;;4990715;28;20483;-86
2023/04/20 09:14:05;;;;;;;2.50;1.33;;;8.90;97.30;;;;;;4973560;28;20429;-87
2023/04/20 09:16:33;;;;;;;3.73;2.57;;;9.10;97.30;;;;;;5004174;28;20459;-89
2023/04/20 09:18:59;;;;;;;4.63;2.70;;;9.40;97.30;;;;;;4984831;28;20425;-87
2023/04/20 09:21:27;;;;;;;6.80;4.97;;;9.70;97.30;;;;;;4985263;28;20438;-86
2023/04/20 09:24:06;;;;;;;2.60;2.47;;;9.80;97.30;;;;;;4985167;28;20247;-87
2023/04/20 09:26:34;;;;;;;2.57;2.30;;;9.90;97.30;;;;;;5001585;28;20469;-87
2023/04/20 09:29:01;;;;;;;6.03;3.27;;;10.00;97.30;;;;;;5001229;28;20423;-88
2023/04/20 09:31:27;;;;;;;2.50;2.17;;;9.90;97.30;;;;;;4988482;28;20445;-89
2023/04/20 09:34:02;;;;;;;2.83;2.63;;;9.80;97.30;;;;;;4994413;28;20428;-87
2023/04/20 09:36:39;;;;;;;3.37;2.53;;;9.80;97.30;;;;;;5004862;28;20641;-87
2023/04/20 09:39:16;;;;;;;2.50;1.93;;;9.80;97.30;;;;;;4977128;28;20435;-88
2023/04/20 09:41:42;;;;;;;8.90;4.70;;;9.60;97.30;;;;;;4982137;28;20819;-87
2023/04/20 09:44:09;;;;;;;2.17;2.00;;;9.50;97.30;;;;;;4977215;28;20527;-87
2023/04/20 09:46:40;;;;;;;2.70;2.50;;;9.30;97.30;;;;;;5001336;28;20472;-87
2023/04/20 09:49:11;;;;;;;3.07;2.90;;;9.10;97.30;;;;;;4985002;28;20500;-87
2023/04/20 09:51:40;;;;;;;3.37;3.03;;;9.10;97.30;;;;;;4984687;28;20588;-87
2023/04/20 09:56:58;;;;;;;6.77;3.73;;;9.20;97.30;;;;;;4983911;28;20421;-87
2023/04/20 09:59:28;;;;;;;4.70;2.77;;;9.30;97.30;;;;;;4984621;28;20724;-86
2023/04/20 10:01:56;;;;;;;3.23;3.03;;;9.50;97.30;;;;;;4983333;28;20186;-87
2023/04/20 10:04:27;;;;;;;3.93;2.50;;;9.70;97.30;;;;;;4987544;28;20445;-86
2023/04/20 10:07:02;;;;;;;4.40;3.57;;;9.80;97.30;;;;;;4994940;28;20575;-86
2023/04/20 10:09:27;;;;;;;4.97;4.03;;;10.00;97.30;;;;;;4989184;28;20860;-86
2023/04/20 10:12:07;;;;;;;3.70;3.50;;;10.30;97.30;;;;;;4998387;28;20463;-86
2023/04/20 10:14:34;;;;;;;12.13;3.10;;;10.40;97.30;;;;;;4993291;28;20584;-86
2023/04/20 10:17:08;;;;;;;3.10;2.77;;;10.40;97.30;;;;;;5001723;28;20446;-87
2023/04/20 10:19:37;;;;;;;3.47;2.40;;;10.20;97.30;;;;;;4994467;28;20745;-86
2023/04/20 10:22:03;;;;;;;5.67;3.93;;;10.10;97.30;;;;;;4984245;28;20496;-87
2023/04/20 10:24:29;;;;;;;7.07;4.70;;;10.10;97.30;;;;;;4984155;28;20488;-87
2023/04/20 10:26:55;;;;;;;6.23;3.83;;;10.30;97.30;;;;;;4984576;28;20210;-87
2023/04/20 10:29:28;;;;;;;5.73;2.77;;;10.40;97.30;;;;;;5000829;28;20916;-86
2023/04/20 10:31:54;;;;;;;2.23;2.03;;;10.50;97.30;;;;;;5003053;28;20436;-88
2023/04/20 10:34:30;;;;;;;4.83;4.30;;;10.40;97.30;;;;;;4994145;28;20433;-87
2023/04/20 10:37:09;;;;;;;2.70;2.50;;;10.40;97.30;;;;;;4982510;28;20433;-87
2023/04/20 10:39:39;;;;;;;4.50;3.87;;;10.40;97.30;;;;;;5000387;28;20417;-87
2023/04/20 10:42:05;;;;;;;7.20;4.30;;;10.20;97.30;;;;;;5000003;28;21018;-87
2023/04/20 10:44:31;;;;;;;3.03;1.60;;;10.10;97.30;;;;;;4979247;28;20484;-87
2023/04/20 10:46:57;;;;;;;4.33;3.67;;;10.00;97.30;;;;;;4993064;28;20602;-87
2023/04/20 10:49:28;;;;;;;4.47;3.43;;;10.00;97.30;;;;;;4983772;28;20424;-87
2023/04/20 10:51:57;;;;;;;5.60;3.40;;;9.90;97.30;;;;;;4983610;28;20188;-86
2023/04/20 10:54:22;;;;;;;4.63;2.47;;;9.80;97.30;;;;;;4975766;28;20532;-87
2023/04/20 10:56:53;;;;;;;2.73;2.57;;;9.70;97.30;;;;;;4981055;28;20511;-87
2023/04/20 10:59:22;;;;;;;3.23;1.93;;;9.80;97.30;;;;;;4983863;28;20244;-87
2023/04/20 11:01:48;;;;;;;2.30;1.83;;;9.70;97.30;;;;;;4981304;28;20417;-87
2023/04/20 11:04:14;;;;;;;4.93;3.03;;;9.70;97.30;;;;;;4983593;28;20536;-87
2023/04/20 11:06:43;;;;;;;3.60;2.80;;;9.50;97.30;;;;;;4984050;28;21040;-87
2023/04/20 11:09:27;;;;;;;1.83;1.77;;;9.40;97.30;;;;;;4975304;28;20421;-86
2023/04/20 11:12:07;;;;;;;5.13;1.90;;;9.30;97.30;;;;;;4983808;28;20416;-87
2023/04/20 11:14:38;;;;;;;6.00;2.90;;;9.30;97.30;;;;;;5000434;28;20433;-87
2023/04/20 11:17:05;;;;;;;8.40;3.50;;;9.20;97.30;;;;;;5015032;28;20508;-90
2023/04/20 11:19:32;;;;;;;6.03;2.87;;;9.20;97.30;;;;;;5005195;28;20448;-89
2023/04/20 11:21:58;;;;;;;6.33;3.13;;;9.20;97.30;;;;;;4997075;28;20425;-88
2023/04/20 11:27:03;;;;;;;4.93;3.20;;;9.20;97.30;;;;;;4988891;23;20492;-90
2023/04/20 11:29:38;;;;;;;3.40;3.20;;;9.20;97.30;;;;;;4989917;28;20468;-89
2023/04/20 11:32:06;;;;;;;5.03;3.50;;;9.10;97.30;;;;;;4981295;28;20492;-90
2023/04/20 11:34:33;;;;;;;5.90;4.20;;;9.00;97.30;;;;;;4985055;28;21044;-89
2023/04/20 11:37:06;;;;;;;3.13;2.93;;;8.90;97.30;;;;;;4967239;28;20445;-90
2023/04/20 11:39:32;;;;;;;6.07;4.67;;;8.90;97.30;;;;;;4961311;28;20429;-90
2023/04/20 11:41:58;;;;;;;2.50;2.13;;;8.90;97.30;;;;;;4964776;28;20789;-89
2023/04/20 11:44:25;;;;;;;8.33;3.70;;;8.80;97.30;;;;;;4967150;28;20918;-89
2023/04/20 11:46:58;;;;;;;4.00;2.53;;;8.70;97.30;;;;;;4966374;28;20488;-89
2023/04/20 11:49:25;;;;;;;5.20;2.40;;;8.60;97.30;;;;;;4963855;28;20419;-89
2023/04/20 11:51:51;;;;;;;6.47;4.47;;;8.60;97.30;;;;;;4962345;28;20428;-89
2023/04/20 11:54:18;;;;;;;5.40;3.07;;;8.60;97.30;;;;;;4957441;28;20430;-89
2023/04/20 11:56:44;;;;;;;4.77;2.73;;;8.50;97.30;;;;;;4965877;28;20211;-89
2023/04/20 11:59:10;;;;;;;3.43;2.93;;;8.40;97.30;;;;;;4964314;28;20430;-90
2023/04/20 12:01:36;;;;;;;2.90;2.73;;;8.40;97.30;;;;;;4959120;28;20434;-89
2023/04/20 12:04:05;;;;;;;4.23;2.93;;;8.30;97.30;;;;;;4963576;28;20455;-90
2023/04/20 12:06:31;;;;;;;2.43;2.23;;;8.30;97.30;;;;;;4964737;28;20453;-90
2023/04/20 12:08:57;;;;;;;5.87;4.40;;;8.30;97.30;;;;;;4963406;28;20428;-90
2023/04/20 12:11:23;;;;;;;1.70;1.70;;;8.50;97.30;;;;;;4961917;28;20191;-89
2023/04/20 12:13:48;;;;;;;5.93;2.20;;;8.50;97.30;;;;;;4950625;28;20219;-90
2023/04/20 12:16:14;;;;;;;3.80;3.60;;;8.50;97.30;;;;;;4970493;28;20446;-90
2023/04/20 12:18:40;;;;;;;3.13;2.83;;;8.60;97.30;;;;;;4961433;28;20632;-90
2023/04/20 12:21:05;;;;;;;9.97;4.17;;;8.60;97.30;;;;;;4964472;28;20187;-90
2023/04/20 12:23:32;;;;;;;3.70;3.50;;;8.60;97.30;;;;;;4965366;28;20425;-90
2023/04/20 12:25:58;;;;;;;6.07;3.97;;;8.60;97.30;;;;;;4963324;28;20318;-90
2023/04/20 12:28:23;;;;;;;2.70;2.50;;;8.60;97.30;;;;;;4966177;28;20481;-90
2023/04/20 12:30:49;;;;;;;2.57;2.37;;;8.50;97.30;;;;;;4965921;28;20183;-90
2023/04/20 12:33:14;;;;;;;4.70;3.10;;;8.40;97.30;;;;;;4959572;28;20650;-91
2023/04/20 12:35:40;;;;;;;7.67;3.53;;;8.40;97.30;;;;;;4971082;28;20214;-90
2023/04/20 12:38:06;;;;;;;7.00;3.77;;;8.40;97.30;;;;;;4961236;28;20193;-90
2023/04/20 12:40:31;;;;;;;4.47;3.53;;;8.40;97.30;;;;;;4961626;28;20415;-90
2023/04/20 12:42:57;;;;;;;4.70;3.70;;;8.40;97.30;;;;;;4962888;28;20199;-90
2023/04/20 12:45:23;;;;;;;3.27;3.03;;;8.50;97.30;;;;;;4966128;28;20202;-90
2023/04/20 12:47:48;;;;;;;11.57;6.23;;;8.50;97.30;;;;;;4968595;28;20236;-90
2023/04/20 12:50:14;;;;;;;6.97;5.30;;;8.40;97.30;;;;;;4963450;28;20195;-90
2023/04/20 12:52:39;;;;;;;12.93;2.57;;;8.40;97.30;;;;;;4982643;28;20183;-90
2023/04/20 12:55:06;;;;;;;10.60;3.17;;;8.40;97.30;;;;;;4973451;28;20233;-90
2023/04/20 12:57:32;;;;;;;11.73;3.73;;;8.50;97.30;;;;;;4974265;28;20278;-90
2023/04/20 12:59:58;;;;;;;10.63;6.93;;;8.60;97.30;;;;;;4981471;28;20469;-90
2023/04/20 13:02:24;;;;;;;2.93;2.57;;;8.60;97.30;;;;;;4974902;28;20194;-90